Time;durP1;ratioP1;P1;durP2;ratioP2;P2;SDS_P1;SDS_P2;PMS_P1;PMS_P2;Temp;Humidity;BMP_temperature;BMP_pressure;BME280_temperature;BME280_humidity;BME280_pressure;Samples;Min_cycle;Max_cycle;Signal;HPM_P1;HPM_P2
2023/09/20 00:01:40;;;;;;;1.70;1.35;;;22.60;89.20;;;;;;4939723;28;20202;-72
2023/09/20 00:04:07;;;;;;;1.75;1.48;;;22.60;89.10;;;;;;4945371;28;20217;-70
2023/09/20 00:06:33;;;;;;;2.10;1.30;;;22.60;89.20;;;;;;4962862;28;20219;-71
2023/09/20 00:09:02;;;;;;;1.55;1.42;;;22.60;89.10;;;;;;4961697;28;20249;-71
2023/09/20 00:11:28;;;;;;;1.30;1.20;;;22.60;89.00;;;;;;4961031;28;20261;-70
2023/09/20 00:13:54;;;;;;;1.40;1.30;;;22.70;89.10;;;;;;4957251;28;20272;-71
2023/09/20 00:16:19;;;;;;;1.35;1.25;;;22.60;89.00;;;;;;4976207;28;20213;-71
2023/09/20 00:18:45;;;;;;;2.10;1.35;;;22.60;89.00;;;;;;4939448;28;20186;-71
2023/09/20 00:21:11;;;;;;;1.75;1.20;;;22.60;89.00;;;;;;4960818;28;20199;-70
2023/09/20 00:23:37;;;;;;;1.42;1.33;;;22.60;89.00;;;;;;4941998;28;20721;-70
2023/09/20 00:26:03;;;;;;;2.10;1.70;;;22.60;88.80;;;;;;4939065;28;20201;-71
2023/09/20 00:28:31;;;;;;;1.50;1.40;;;22.60;88.90;;;;;;4978234;28;20196;-71
2023/09/20 00:30:57;;;;;;;1.30;1.20;;;22.60;88.80;;;;;;4944810;28;20189;-71
2023/09/20 00:33:23;;;;;;;1.45;1.30;;;22.60;88.70;;;;;;4945919;28;20244;-70
2023/09/20 00:35:49;;;;;;;1.10;1.00;;;22.60;88.70;;;;;;4944258;28;20190;-71
2023/09/20 00:38:16;;;;;;;1.63;1.52;;;22.60;88.60;;;;;;4947532;28;20211;-71
2023/09/20 00:40:43;;;;;;;1.73;1.30;;;22.50;88.70;;;;;;4961716;28;20186;-71
2023/09/20 00:43:11;;;;;;;2.33;1.25;;;22.60;88.80;;;;;;4956716;28;20188;-71
2023/09/20 00:45:40;;;;;;;1.58;1.48;;;22.60;88.80;;;;;;4980193;28;20267;-71
2023/09/20 00:48:09;;;;;;;1.83;1.30;;;22.60;88.80;;;;;;4945754;28;20688;-70
2023/09/20 00:50:35;;;;;;;1.95;1.50;;;22.60;88.80;;;;;;4961607;28;20284;-71
2023/09/20 00:53:06;;;;;;;1.38;1.27;;;22.50;88.70;;;;;;4971737;28;20260;-71
2023/09/20 00:55:36;;;;;;;1.63;1.25;;;22.60;88.80;;;;;;4959055;28;20204;-72
2023/09/20 00:58:14;;;;;;;1.10;1.00;;;22.60;88.80;;;;;;4942953;28;20218;-72
2023/09/20 01:00:43;;;;;;;1.30;1.20;;;22.60;88.80;;;;;;4958606;28;20209;-72
2023/09/20 01:03:11;;;;;;;1.13;1.00;;;22.60;88.70;;;;;;4950633;28;20189;-71
2023/09/20 01:05:39;;;;;;;1.63;1.35;;;22.60;88.70;;;;;;4982796;28;20295;-70
2023/09/20 01:08:06;;;;;;;1.10;1.02;;;22.60;88.70;;;;;;4963997;28;20210;-71
2023/09/20 01:10:36;;;;;;;1.20;1.10;;;22.50;88.60;;;;;;4950293;28;20193;-70
2023/09/20 01:13:05;;;;;;;1.20;1.10;;;22.60;88.50;;;;;;4976765;28;20192;-71
2023/09/20 01:15:36;;;;;;;0.90;0.90;;;22.50;88.50;;;;;;4952812;28;20189;-71
2023/09/20 01:18:04;;;;;;;1.20;1.10;;;22.50;88.50;;;;;;4960555;28;20210;-70
2023/09/20 01:20:34;;;;;;;1.23;1.13;;;22.50;88.50;;;;;;4939295;28;20194;-70
2023/09/20 01:23:00;;;;;;;1.25;1.15;;;22.50;88.50;;;;;;4942360;28;20185;-71
2023/09/20 01:25:42;;;;;;;1.40;1.30;;;22.50;88.50;;;;;;4938967;28;20670;-71
2023/09/20 01:28:10;;;;;;;1.40;1.30;;;22.50;88.40;;;;;;4979987;28;20215;-70
2023/09/20 01:30:39;;;;;;;1.25;1.15;;;22.50;88.50;;;;;;4960424;28;20637;-71
2023/09/20 01:33:08;;;;;;;1.15;1.05;;;22.50;88.50;;;;;;4960489;28;20186;-71
2023/09/20 01:35:37;;;;;;;1.55;1.10;;;22.50;88.40;;;;;;4961801;28;20667;-71
2023/09/20 01:38:08;;;;;;;1.38;1.25;;;22.50;88.40;;;;;;4945718;28;20205;-71
2023/09/20 01:40:35;;;;;;;1.40;1.30;;;22.50;88.40;;;;;;4960427;28;20278;-71
2023/09/20 01:43:06;;;;;;;1.70;1.27;;;22.50;88.30;;;;;;4961635;28;20595;-71
2023/09/20 01:45:34;;;;;;;3.13;1.30;;;22.50;88.30;;;;;;4939907;28;20206;-71
2023/09/20 01:48:00;;;;;;;1.38;1.20;;;22.50;88.20;;;;;;4943783;28;20233;-71
2023/09/20 01:50:27;;;;;;;1.27;1.17;;;22.50;88.20;;;;;;4961322;28;20192;-71
2023/09/20 01:53:05;;;;;;;1.25;1.15;;;22.50;88.20;;;;;;4976806;28;20606;-71
2023/09/20 01:55:31;;;;;;;1.23;1.00;;;22.50;88.20;;;;;;4953987;28;20276;-71
2023/09/20 01:58:06;;;;;;;1.55;1.00;;;22.50;88.30;;;;;;4942558;28;20212;-70
2023/09/20 02:00:38;;;;;;;1.27;1.10;;;22.50;88.30;;;;;;4952158;28;20193;-71
2023/09/20 02:03:08;;;;;;;1.30;1.20;;;22.50;88.30;;;;;;4959306;28;20195;-71
2023/09/20 02:05:36;;;;;;;1.27;1.17;;;22.50;88.30;;;;;;4959059;28;20224;-71
2023/09/20 02:08:04;;;;;;;1.35;1.00;;;22.50;88.30;;;;;;4943047;28;20764;-70
2023/09/20 02:10:31;;;;;;;1.20;1.10;;;22.50;88.10;;;;;;4957422;28;20229;-71
2023/09/20 02:12:58;;;;;;;1.10;1.10;;;22.50;88.20;;;;;;4943315;28;20228;-71
2023/09/20 02:15:27;;;;;;;1.50;1.40;;;22.50;88.10;;;;;;4958713;28;20724;-71
2023/09/20 02:17:54;;;;;;;1.20;1.10;;;22.50;88.10;;;;;;4976358;28;20210;-71
2023/09/20 02:20:23;;;;;;;1.45;1.30;;;22.50;88.10;;;;;;4967702;28;20189;-71
2023/09/20 02:22:55;;;;;;;1.23;1.02;;;22.50;88.10;;;;;;4977590;28;20244;-70
2023/09/20 02:25:22;;;;;;;1.30;1.20;;;22.50;88.00;;;;;;4942335;28;20205;-71
2023/09/20 02:27:57;;;;;;;1.17;1.05;;;22.40;87.80;;;;;;4934123;29;20202;-71
2023/09/20 02:30:35;;;;;;;1.20;1.10;;;22.50;87.80;;;;;;4966683;28;20197;-71
2023/09/20 02:33:05;;;;;;;1.08;1.00;;;22.50;88.00;;;;;;4957095;28;20253;-71
2023/09/20 02:35:33;;;;;;;1.17;1.08;;;22.50;88.00;;;;;;4935101;28;20630;-70
2023/09/20 02:37:59;;;;;;;1.83;1.30;;;22.50;88.00;;;;;;4955775;28;20689;-71
2023/09/20 02:40:26;;;;;;;1.60;1.10;;;22.50;88.00;;;;;;4940975;28;20208;-70
2023/09/20 02:42:58;;;;;;;1.85;1.23;;;22.40;87.90;;;;;;4941094;28;20264;-70
2023/09/20 02:45:28;;;;;;;1.77;1.45;;;22.40;87.90;;;;;;4956461;28;20201;-71
2023/09/20 02:47:55;;;;;;;1.38;1.27;;;22.40;87.80;;;;;;4956115;28;20205;-70
2023/09/20 02:50:23;;;;;;;1.23;1.13;;;22.40;87.80;;;;;;4968071;28;20658;-70
2023/09/20 02:52:52;;;;;;;1.60;1.27;;;22.40;87.70;;;;;;4939817;28;20205;-71
2023/09/20 02:55:21;;;;;;;1.02;1.02;;;22.40;87.80;;;;;;4955854;28;20240;-71
2023/09/20 02:57:54;;;;;;;1.38;1.27;;;22.40;87.70;;;;;;4954588;28;20232;-71
2023/09/20 03:00:28;;;;;;;0.90;0.90;;;22.40;87.70;;;;;;4946823;28;20194;-71
2023/09/20 03:02:58;;;;;;;1.17;1.08;;;22.40;87.50;;;;;;4940129;28;20236;-70
2023/09/20 03:05:27;;;;;;;1.30;1.20;;;22.40;87.40;;;;;;4932567;28;20332;-71
2023/09/20 03:07:54;;;;;;;1.10;1.00;;;22.40;87.70;;;;;;4939756;28;20251;-71
2023/09/20 03:10:22;;;;;;;1.50;1.40;;;22.40;87.70;;;;;;4956790;28;20193;-70
2023/09/20 03:12:55;;;;;;;1.35;1.25;;;22.40;87.70;;;;;;4956107;28;20174;-70
2023/09/20 03:15:23;;;;;;;1.30;1.20;;;22.40;87.60;;;;;;4972748;28;20679;-70
2023/09/20 03:18:02;;;;;;;1.48;1.10;;;22.40;87.70;;;;;;4972987;28;20216;-70
2023/09/20 03:20:33;;;;;;;1.10;1.00;;;22.40;87.70;;;;;;4956913;28;20186;-71
2023/09/20 03:23:05;;;;;;;1.05;1.00;;;22.40;87.60;;;;;;4957834;28;20204;-71
2023/09/20 03:25:36;;;;;;;1.30;1.20;;;22.40;87.70;;;;;;4941197;28;20208;-70
2023/09/20 03:28:09;;;;;;;1.50;1.00;;;22.40;88.40;;;;;;4942412;28;20210;-71
2023/09/20 03:30:39;;;;;;;1.05;1.00;;;22.40;88.00;;;;;;4963099;28;20661;-71
2023/09/20 03:33:08;;;;;;;1.02;0.98;;;22.40;89.30;;;;;;4956014;28;20190;-71
2023/09/20 03:35:35;;;;;;;0.93;0.93;;;22.40;87.20;;;;;;4955872;28;20193;-70
2023/09/20 03:38:02;;;;;;;1.35;1.25;;;22.40;87.10;;;;;;4980646;28;20201;-71
2023/09/20 03:40:29;;;;;;;1.13;1.02;;;22.40;94.80;;;;;;4952971;28;20200;-70
2023/09/20 03:42:58;;;;;;;0.80;0.80;;;22.40;87.20;;;;;;4944162;28;20249;-71
2023/09/20 03:45:28;;;;;;;1.27;1.10;;;22.40;87.40;;;;;;4956457;28;20586;-71
2023/09/20 03:47:56;;;;;;;1.05;1.00;;;22.40;88.10;;;;;;4955896;28;20208;-71
2023/09/20 03:50:24;;;;;;;0.80;0.80;;;22.40;87.80;;;;;;4955979;28;20189;-70
2023/09/20 03:52:50;;;;;;;0.98;0.98;;;22.40;90.40;;;;;;4962368;28;20180;-71
2023/09/20 03:55:17;;;;;;;1.20;1.08;;;22.40;87.50;;;;;;4941037;28;20224;-71
2023/09/20 03:57:44;;;;;;;1.15;1.05;;;22.40;87.60;;;;;;4955792;28;20292;-70
2023/09/20 04:00:18;;;;;;;1.65;1.23;;;22.40;88.80;;;;;;4955485;28;20206;-71
2023/09/20 04:02:45;;;;;;;1.42;1.10;;;22.40;87.30;;;;;;4955806;28;20189;-70
2023/09/20 04:05:15;;;;;;;0.85;0.85;;;22.40;87.20;;;;;;4939808;28;20209;-71
2023/09/20 04:07:44;;;;;;;1.10;1.00;;;22.30;87.20;;;;;;4960767;28;20204;-70
2023/09/20 04:10:10;;;;;;;1.08;0.93;;;22.30;87.10;;;;;;4950710;28;20185;-70
2023/09/20 04:12:36;;;;;;;1.15;1.05;;;22.30;90.40;;;;;;4972837;28;20173;-70
2023/09/20 04:15:07;;;;;;;1.23;1.10;;;22.30;87.00;;;;;;4943007;28;20209;-71
2023/09/20 04:17:35;;;;;;;1.15;1.10;;;22.40;87.10;;;;;;4960324;28;20200;-70
2023/09/20 04:20:05;;;;;;;1.08;1.00;;;22.40;87.20;;;;;;4958584;28;20200;-70
2023/09/20 04:22:32;;;;;;;1.10;1.00;;;22.40;87.20;;;;;;4943723;28;20177;-70
2023/09/20 04:24:59;;;;;;;1.17;1.08;;;22.40;87.20;;;;;;4967325;28;20201;-70
2023/09/20 04:27:28;;;;;;;1.00;1.00;;;22.30;87.00;;;;;;4958070;28;20220;-70
2023/09/20 04:29:55;;;;;;;1.33;1.20;;;22.40;87.10;;;;;;4952208;28;20197;-70
2023/09/20 04:32:21;;;;;;;1.20;1.10;;;22.30;87.10;;;;;;4940131;28;20270;-70
2023/09/20 04:34:49;;;;;;;1.00;0.98;;;22.30;87.10;;;;;;4955560;28;20181;-70
2023/09/20 04:37:16;;;;;;;1.02;1.00;;;22.30;87.10;;;;;;4946576;28;20217;-70
2023/09/20 04:39:42;;;;;;;1.23;1.13;;;22.30;87.10;;;;;;4951952;28;20189;-70
2023/09/20 04:42:11;;;;;;;1.20;1.10;;;22.30;87.10;;;;;;4947094;28;20198;-70
2023/09/20 04:44:38;;;;;;;1.45;1.20;;;22.30;87.10;;;;;;4991008;28;20217;-70
2023/09/20 04:47:04;;;;;;;1.33;1.23;;;22.40;87.20;;;;;;4959944;28;20245;-70
2023/09/20 04:49:29;;;;;;;2.05;1.50;;;22.30;87.10;;;;;;4982787;28;20172;-70
2023/09/20 04:52:00;;;;;;;1.98;1.60;;;22.30;87.10;;;;;;4967377;28;20182;-70
2023/09/20 04:54:28;;;;;;;1.80;1.55;;;22.30;87.00;;;;;;4954379;28;20239;-71
2023/09/20 04:56:54;;;;;;;2.00;1.45;;;22.30;87.10;;;;;;4952979;28;20306;-70
2023/09/20 04:59:22;;;;;;;1.30;1.20;;;22.30;87.00;;;;;;4950496;28;20665;-70
2023/09/20 05:01:51;;;;;;;1.45;1.20;;;22.30;87.00;;;;;;4966604;28;20189;-70
2023/09/20 05:04:19;;;;;;;1.40;1.30;;;22.30;86.80;;;;;;4982062;28;20213;-70
2023/09/20 05:06:45;;;;;;;1.42;1.30;;;22.40;87.10;;;;;;4944666;28;20209;-71
2023/09/20 05:09:13;;;;;;;1.50;1.40;;;22.30;87.10;;;;;;4954986;28;20192;-71
2023/09/20 05:11:39;;;;;;;1.15;1.05;;;22.30;86.90;;;;;;4943067;28;20177;-70
2023/09/20 05:14:07;;;;;;;1.48;1.20;;;22.30;86.80;;;;;;4960284;28;20208;-70
2023/09/20 05:16:34;;;;;;;2.25;1.50;;;22.30;86.90;;;;;;4953344;28;20208;-70
2023/09/20 05:19:00;;;;;;;1.55;1.40;;;22.30;86.90;;;;;;4950115;29;20302;-71
2023/09/20 05:21:27;;;;;;;1.75;1.45;;;22.30;86.70;;;;;;4967986;28;20299;-70
2023/09/20 05:23:52;;;;;;;3.78;1.77;;;22.30;87.00;;;;;;4963239;28;20341;-70
2023/09/20 05:26:18;;;;;;;1.30;1.17;;;22.30;87.00;;;;;;4943329;28;20288;-70
2023/09/20 05:28:46;;;;;;;1.40;1.30;;;22.30;86.80;;;;;;4948348;28;20189;-70
2023/09/20 05:31:14;;;;;;;1.40;1.30;;;22.30;86.90;;;;;;4958446;28;20201;-70
2023/09/20 05:33:39;;;;;;;2.10;1.25;;;22.30;87.00;;;;;;4948681;28;20190;-70
2023/09/20 05:36:06;;;;;;;1.50;1.40;;;22.30;87.00;;;;;;4949064;28;20185;-70
2023/09/20 05:38:32;;;;;;;1.35;1.23;;;22.30;87.00;;;;;;4942199;28;20195;-70
2023/09/20 05:40:57;;;;;;;1.92;1.50;;;22.30;86.90;;;;;;4948115;28;20177;-70
2023/09/20 05:43:23;;;;;;;1.50;1.40;;;22.30;86.90;;;;;;4965523;28;20224;-71
2023/09/20 05:45:49;;;;;;;1.98;1.05;;;22.30;87.00;;;;;;4948759;28;20213;-71
2023/09/20 05:48:16;;;;;;;2.60;1.27;;;22.30;86.90;;;;;;4958572;28;20202;-70
2023/09/20 05:50:42;;;;;;;1.70;1.60;;;22.30;86.80;;;;;;4992134;28;20192;-70
2023/09/20 05:53:12;;;;;;;1.48;1.38;;;22.30;86.70;;;;;;4948638;28;20676;-70
2023/09/20 05:55:38;;;;;;;1.55;1.30;;;22.30;86.70;;;;;;4971902;28;20184;-70
2023/09/20 05:58:05;;;;;;;1.63;1.52;;;22.30;86.60;;;;;;4984859;28;20204;-70
2023/09/20 06:00:33;;;;;;;1.40;1.30;;;22.30;86.50;;;;;;4974785;28;20224;-70
2023/09/20 06:02:59;;;;;;;1.45;1.35;;;22.30;86.60;;;;;;4969547;28;20236;-70
2023/09/20 06:05:28;;;;;;;1.95;1.38;;;22.30;86.70;;;;;;4989271;28;20205;-70
2023/09/20 06:07:54;;;;;;;1.45;1.35;;;22.30;86.80;;;;;;4946959;29;20293;-70
2023/09/20 06:10:22;;;;;;;1.40;1.30;;;22.30;86.60;;;;;;4980415;28;20192;-70
2023/09/20 06:12:50;;;;;;;1.40;1.20;;;22.30;86.70;;;;;;4952658;28;20205;-70
2023/09/20 06:15:16;;;;;;;1.30;1.13;;;22.20;86.50;;;;;;4957256;28;20271;-71
2023/09/20 06:17:43;;;;;;;1.35;1.25;;;22.30;86.70;;;;;;4957494;28;20197;-71
2023/09/20 06:20:12;;;;;;;1.33;1.23;;;22.20;86.60;;;;;;4961673;28;20198;-70
2023/09/20 06:22:42;;;;;;;1.30;1.20;;;22.30;87.00;;;;;;4941445;28;20186;-70
2023/09/20 06:25:08;;;;;;;1.50;1.40;;;22.30;86.80;;;;;;4969791;28;20213;-70
2023/09/20 06:27:34;;;;;;;1.30;1.20;;;22.30;86.70;;;;;;4957241;28;20641;-70
2023/09/20 06:30:06;;;;;;;1.40;1.30;;;22.30;86.80;;;;;;4962665;28;20212;-70
2023/09/20 06:32:33;;;;;;;1.63;1.42;;;22.20;86.60;;;;;;4970387;28;20194;-70
2023/09/20 06:35:03;;;;;;;1.52;1.40;;;22.30;86.80;;;;;;4960941;28;20193;-70
2023/09/20 06:37:29;;;;;;;1.58;1.25;;;22.30;86.80;;;;;;4963479;28;20213;-70
2023/09/20 06:39:56;;;;;;;1.60;1.30;;;22.20;86.60;;;;;;4984896;28;20190;-70
2023/09/20 06:42:25;;;;;;;1.73;1.45;;;22.30;86.70;;;;;;4963150;28;20193;-70
2023/09/20 06:44:52;;;;;;;1.35;1.20;;;22.30;86.70;;;;;;4952461;28;20277;-70
2023/09/20 06:47:18;;;;;;;2.05;1.30;;;22.30;86.70;;;;;;4957821;28;20304;-72
2023/09/20 06:49:45;;;;;;;1.73;1.42;;;22.30;86.70;;;;;;4956220;28;20271;-70
2023/09/20 06:52:11;;;;;;;2.00;1.33;;;22.30;86.70;;;;;;4970888;28;20239;-70
2023/09/20 06:54:38;;;;;;;1.50;1.23;;;22.30;86.70;;;;;;4956872;28;20244;-70
2023/09/20 06:57:05;;;;;;;1.45;1.35;;;22.30;86.70;;;;;;4968238;28;20266;-72
2023/09/20 06:59:37;;;;;;;1.52;1.42;;;22.30;86.70;;;;;;4968452;28;20189;-70
2023/09/20 07:02:03;;;;;;;1.63;1.27;;;22.30;86.90;;;;;;4968265;28;20276;-70
2023/09/20 07:04:31;;;;;;;1.30;1.20;;;22.30;87.00;;;;;;4962317;28;20209;-70
2023/09/20 07:07:03;;;;;;;1.58;1.48;;;22.30;86.90;;;;;;4940413;28;20212;-70
2023/09/20 07:09:31;;;;;;;2.85;1.30;;;22.30;86.80;;;;;;4941066;28;20196;-70
2023/09/20 07:12:01;;;;;;;1.42;1.05;;;22.30;86.90;;;;;;4946279;28;20192;-70
2023/09/20 07:14:31;;;;;;;1.13;1.10;;;22.30;86.90;;;;;;4961117;28;20244;-70
2023/09/20 07:17:00;;;;;;;1.88;1.42;;;22.30;86.90;;;;;;4965550;28;20239;-70
2023/09/20 07:19:29;;;;;;;1.40;1.30;;;22.30;86.90;;;;;;4946404;28;20185;-70
2023/09/20 07:21:56;;;;;;;1.30;1.20;;;22.30;86.70;;;;;;4961817;28;20217;-70
2023/09/20 07:24:24;;;;;;;1.70;1.30;;;22.40;86.90;;;;;;4962116;28;20221;-70
2023/09/20 07:26:52;;;;;;;1.52;1.38;;;22.40;86.90;;;;;;4969233;28;20288;-70
2023/09/20 07:29:18;;;;;;;1.48;1.30;;;22.30;86.90;;;;;;4986683;28;20192;-70
2023/09/20 07:31:45;;;;;;;1.88;1.23;;;22.40;86.90;;;;;;4956462;28;20603;-71
2023/09/20 07:34:13;;;;;;;1.83;1.40;;;22.40;86.90;;;;;;4961685;28;20196;-70
2023/09/20 07:36:43;;;;;;;2.28;1.30;;;22.40;86.90;;;;;;4966353;28;20214;-70
2023/09/20 07:39:13;;;;;;;1.42;1.30;;;22.40;87.00;;;;;;4956231;28;20192;-70
2023/09/20 07:41:46;;;;;;;1.08;1.00;;;22.40;86.80;;;;;;4969015;28;20197;-70
2023/09/20 07:44:15;;;;;;;1.52;1.30;;;22.40;86.70;;;;;;4986056;28;20618;-71
2023/09/20 07:46:42;;;;;;;1.70;1.40;;;22.40;86.60;;;;;;4968758;28;20275;-71
2023/09/20 07:49:09;;;;;;;1.50;1.40;;;22.50;86.70;;;;;;4968980;28;20192;-70
2023/09/20 07:51:42;;;;;;;1.33;1.23;;;22.50;86.60;;;;;;4957807;28;20286;-70
2023/09/20 07:54:10;;;;;;;1.20;1.10;;;22.50;86.60;;;;;;4958551;28;20273;-70
2023/09/20 07:56:37;;;;;;;1.20;1.10;;;22.50;86.50;;;;;;4941207;28;20209;-71
2023/09/20 07:59:04;;;;;;;1.48;1.23;;;22.50;86.40;;;;;;4969364;28;20188;-70
2023/09/20 08:01:31;;;;;;;1.38;1.25;;;22.50;86.40;;;;;;4948269;28;20289;-71
2023/09/20 08:03:58;;;;;;;1.40;1.30;;;22.50;86.40;;;;;;4948414;28;20251;-71
2023/09/20 08:06:28;;;;;;;1.35;1.25;;;22.60;86.40;;;;;;4961034;28;20255;-70
2023/09/20 08:08:58;;;;;;;1.27;1.17;;;22.60;87.20;;;;;;4972447;28;20196;-71
2023/09/20 08:11:25;;;;;;;1.45;1.33;;;22.60;86.40;;;;;;4961371;28;20550;-70
2023/09/20 08:13:53;;;;;;;1.20;1.10;;;22.60;86.40;;;;;;4964208;28;20177;-70
2023/09/20 08:16:21;;;;;;;1.23;1.13;;;22.60;86.50;;;;;;4961489;28;20185;-70
2023/09/20 08:21:33;;;;;;;1.45;1.17;;;22.70;86.70;;;;;;4959031;28;20200;-70
2023/09/20 09:00:22;;;;;;;2.00;1.35;;;22.70;87.20;;;;;;4978735;28;20201;-70
2023/09/20 09:02:57;;;;;;;1.40;1.30;;;22.70;87.10;;;;;;4943160;28;20181;-71
2023/09/20 09:05:28;;;;;;;1.33;1.23;;;22.70;87.20;;;;;;4970382;28;20298;-71
2023/09/20 09:08:02;;;;;;;1.63;1.20;;;22.70;87.30;;;;;;4961973;28;20226;-70
2023/09/20 09:10:29;;;;;;;1.42;1.33;;;22.70;87.10;;;;;;4963971;28;20186;-70
2023/09/20 09:12:55;;;;;;;1.33;1.02;;;22.70;87.50;;;;;;4967621;28;20190;-71
2023/09/20 09:15:24;;;;;;;1.38;1.27;;;22.70;88.00;;;;;;4950873;28;20212;-70
2023/09/20 09:17:50;;;;;;;1.70;1.40;;;22.70;89.10;;;;;;4949375;28;20241;-71
2023/09/20 09:20:20;;;;;;;1.58;1.35;;;22.70;89.20;;;;;;4948489;28;20189;-71
2023/09/20 09:22:47;;;;;;;1.73;1.60;;;22.70;90.00;;;;;;4952805;28;20186;-70
2023/09/20 09:25:30;;;;;;;1.25;1.05;;;22.70;90.90;;;;;;4948399;28;20219;-71
2023/09/20 09:27:58;;;;;;;1.83;1.20;;;;;;;;;;4969592;28;20212;-71
2023/09/20 09:30:23;;;;;;;1.10;1.00;;;22.70;86.70;;;;;;4980341;28;20608;-70
2023/09/20 09:32:50;;;;;;;1.40;1.30;;;22.70;87.50;;;;;;4964741;28;20224;-70
2023/09/20 09:35:18;;;;;;;1.83;1.40;;;22.70;87.50;;;;;;4943925;28;20205;-70
2023/09/20 09:37:45;;;;;;;1.20;1.10;;;22.70;87.50;;;;;;4966411;28;20217;-70
2023/09/20 09:40:12;;;;;;;1.13;1.10;;;22.70;87.50;;;;;;4940018;28;20274;-70
2023/09/20 09:42:40;;;;;;;2.35;1.23;;;22.70;87.50;;;;;;4975993;28;20212;-70
2023/09/20 09:45:07;;;;;;;1.73;1.38;;;22.70;87.50;;;;;;4952683;28;20220;-74
2023/09/20 09:47:35;;;;;;;1.00;1.00;;;22.70;87.50;;;;;;4962227;28;20228;-70
2023/09/20 09:50:06;;;;;;;1.20;1.10;;;22.70;87.50;;;;;;4965523;28;20253;-71
2023/09/20 09:52:36;;;;;;;1.20;1.10;;;22.70;87.50;;;;;;4958298;28;20194;-70
2023/09/20 09:55:02;;;;;;;2.22;1.10;;;22.70;87.50;;;;;;4978475;28;20263;-70
2023/09/20 09:57:28;;;;;;;2.28;1.20;;;22.70;87.50;;;;;;4960990;28;20685;-71
2023/09/20 09:59:55;;;;;;;1.23;1.02;;;22.70;87.50;;;;;;4976963;28;20732;-71
2023/09/20 10:02:23;;;;;;;1.45;1.17;;;22.70;87.50;;;;;;4962277;28;20198;-70
2023/09/20 10:05:02;;;;;;;1.65;1.15;;;22.70;87.50;;;;;;4962663;28;20218;-71
2023/09/20 10:07:33;;;;;;;1.30;1.20;;;22.70;87.50;;;;;;4970530;28;20221;-71
2023/09/20 10:10:13;;;;;;;1.58;1.13;;;22.70;87.50;;;;;;4962171;28;20567;-71
2023/09/20 10:12:47;;;;;;;1.23;1.10;;;22.70;87.40;;;;;;4959058;28;20268;-70
2023/09/20 10:15:15;;;;;;;1.15;1.05;;;22.70;87.50;;;;;;4950300;28;20198;-70
2023/09/20 10:17:55;;;;;;;1.38;1.02;;;22.70;87.50;;;;;;4960819;28;20237;-70
2023/09/20 10:20:22;;;;;;;1.48;1.20;;;22.70;87.50;;;;;;4981818;28;20312;-70
2023/09/20 10:22:51;;;;;;;1.02;1.00;;;22.70;87.50;;;;;;4960847;28;20193;-70
2023/09/20 10:25:36;;;;;;;1.17;1.08;;;22.70;87.50;;;;;;4941548;28;20230;-70
2023/09/20 10:28:09;;;;;;;1.35;1.02;;;22.70;87.50;;;;;;4963839;28;20201;-70
2023/09/20 10:31:03;;;;;;;1.33;1.13;;;22.70;87.50;;;;;;4961667;28;20207;-70
2023/09/20 10:33:45;;;;;;;1.98;1.10;;;22.70;87.50;;;;;;4953292;28;20189;-71
2023/09/20 10:36:14;;;;;;;0.98;0.98;;;22.70;87.50;;;;;;4978481;28;20331;-70
2023/09/20 10:38:44;;;;;;;1.25;1.20;;;22.70;87.50;;;;;;4957598;28;20230;-71
2023/09/20 10:41:12;;;;;;;1.25;1.15;;;22.70;87.50;;;;;;4965636;28;20227;-70
2023/09/20 10:43:38;;;;;;;1.30;1.20;;;22.80;87.60;;;;;;4957100;28;20185;-70
2023/09/20 10:46:19;;;;;;;1.00;1.00;;;22.70;87.50;;;;;;4940664;28;20220;-71
2023/09/20 10:48:51;;;;;;;1.17;1.10;;;22.70;87.50;;;;;;4957241;28;20190;-70
2023/09/20 10:51:43;;;;;;;1.10;1.00;;;22.80;87.80;;;;;;4957113;28;20182;-70
2023/09/20 10:54:26;;;;;;;2.75;1.45;;;22.80;88.60;;;;;;4954805;28;20269;-70
2023/09/20 10:56:52;;;;;;;1.15;1.05;;;22.70;87.70;;;;;;4956680;28;20213;-70
2023/09/20 10:59:25;;;;;;;1.05;1.00;;;22.80;87.80;;;;;;4946098;28;20192;-71
2023/09/20 11:01:58;;;;;;;1.15;1.05;;;22.80;87.80;;;;;;4956530;28;20201;-70
2023/09/20 11:04:24;;;;;;;1.00;0.90;;;22.80;87.80;;;;;;4958990;28;20209;-71
2023/09/20 11:06:52;;;;;;;0.98;0.95;;;22.80;87.60;;;;;;4958698;28;20215;-71
2023/09/20 11:09:20;;;;;;;1.88;1.10;;;22.80;87.80;;;;;;4956742;28;20220;-70
2023/09/20 11:11:48;;;;;;;1.25;0.95;;;22.80;87.90;;;;;;4961467;28;20280;-71
2023/09/20 11:14:13;;;;;;;1.17;1.08;;;22.80;87.70;;;;;;4973737;28;20197;-71
2023/09/20 11:16:43;;;;;;;1.20;0.90;;;22.80;87.90;;;;;;4946075;28;20209;-70
2023/09/20 11:19:13;;;;;;;2.05;1.15;;;22.80;87.80;;;;;;4953988;28;20225;-71
2023/09/20 11:21:41;;;;;;;1.70;1.02;;;22.80;88.00;;;;;;4973496;28;20197;-70
2023/09/20 11:24:12;;;;;;;1.02;0.95;;;22.80;88.00;;;;;;4956337;28;20272;-70
2023/09/20 11:26:43;;;;;;;1.45;1.05;;;22.80;87.90;;;;;;4956336;28;20209;-71
2023/09/20 11:29:10;;;;;;;1.55;1.20;;;22.80;88.00;;;;;;4940426;28;20193;-71
2023/09/20 11:31:37;;;;;;;1.15;1.05;;;22.80;88.10;;;;;;4980548;28;20193;-69
2023/09/20 11:34:05;;;;;;;0.95;0.95;;;22.80;88.00;;;;;;4964449;28;20791;-71
2023/09/20 11:36:46;;;;;;;1.20;1.10;;;22.90;88.10;;;;;;4947505;28;20731;-71
2023/09/20 11:39:17;;;;;;;1.17;1.00;;;22.80;87.90;;;;;;4958885;28;20198;-70
2023/09/20 11:41:46;;;;;;;1.13;0.88;;;22.80;87.60;;;;;;4958904;28;20288;-72
2023/09/20 11:44:17;;;;;;;1.08;1.05;;;22.80;87.80;;;;;;4956280;28;20217;-70
2023/09/20 11:46:50;;;;;;;1.00;1.00;;;22.90;88.00;;;;;;4944609;28;20208;-71
2023/09/20 11:49:15;;;;;;;1.10;1.10;;;22.80;87.80;;;;;;4958909;28;20180;-70
2023/09/20 11:51:43;;;;;;;1.10;1.00;;;22.90;88.10;;;;;;4942122;28;20540;-71
2023/09/20 11:54:11;;;;;;;1.30;1.20;;;22.90;88.10;;;;;;4977588;28;20189;-71
2023/09/20 11:56:37;;;;;;;1.10;1.00;;;22.80;88.10;;;;;;4960121;28;20214;-70
2023/09/20 11:59:09;;;;;;;1.20;1.10;;;22.90;88.30;;;;;;4939670;28;20200;-72
2023/09/20 12:01:40;;;;;;;1.27;1.13;;;22.90;88.30;;;;;;4957856;28;20201;-71
2023/09/20 12:04:08;;;;;;;1.38;1.15;;;22.90;88.40;;;;;;4967766;28;20308;-71
2023/09/20 12:06:35;;;;;;;1.02;1.00;;;22.90;88.30;;;;;;4947689;28;20201;-72
2023/09/20 12:09:03;;;;;;;1.10;1.10;;;22.90;88.20;;;;;;4959922;28;20177;-72
2023/09/20 12:11:29;;;;;;;1.70;1.20;;;22.80;88.20;;;;;;4953895;28;20281;-72
2023/09/20 12:13:56;;;;;;;0.95;0.95;;;22.90;88.20;;;;;;4942657;28;20181;-72
2023/09/20 12:16:23;;;;;;;0.90;0.90;;;22.90;89.10;;;;;;4944124;28;20693;-72
2023/09/20 12:18:58;;;;;;;0.93;0.93;;;22.90;88.30;;;;;;4939664;28;20693;-71
2023/09/20 12:21:25;;;;;;;1.10;1.00;;;22.90;88.40;;;;;;4963571;28;20185;-73
2023/09/20 12:23:51;;;;;;;1.08;0.90;;;22.90;88.10;;;;;;4963651;28;20185;-71
2023/09/20 12:26:17;;;;;;;1.13;1.00;;;22.90;88.20;;;;;;4943136;28;20324;-72
2023/09/20 12:28:44;;;;;;;1.10;1.00;;;22.90;88.00;;;;;;4955548;28;20193;-73
2023/09/20 12:31:10;;;;;;;1.60;1.10;;;22.90;88.20;;;;;;4960618;28;20177;-71
2023/09/20 12:33:37;;;;;;;1.00;1.00;;;22.90;88.10;;;;;;4947773;28;20651;-71
2023/09/20 12:36:04;;;;;;;1.00;1.00;;;22.90;88.20;;;;;;4958500;28;20570;-71
2023/09/20 12:38:30;;;;;;;1.75;1.00;;;22.90;88.30;;;;;;4941451;28;20189;-71
2023/09/20 12:40:57;;;;;;;1.00;0.90;;;22.90;88.20;;;;;;4957024;28;20233;-71
2023/09/20 12:43:23;;;;;;;1.20;1.10;;;22.90;88.20;;;;;;4939838;28;20196;-71
2023/09/20 12:45:51;;;;;;;1.25;1.15;;;22.90;88.30;;;;;;4935985;29;20214;-71
2023/09/20 12:48:17;;;;;;;1.27;1.17;;;22.90;88.30;;;;;;4961886;28;20253;-71
2023/09/20 12:50:44;;;;;;;1.38;1.10;;;22.90;88.30;;;;;;4941112;28;20194;-71
2023/09/20 12:53:10;;;;;;;1.13;1.02;;;22.90;88.30;;;;;;4942158;28;20217;-70
2023/09/20 12:55:38;;;;;;;1.30;1.20;;;22.90;88.30;;;;;;4939352;28;20189;-71
2023/09/20 12:58:06;;;;;;;1.17;1.08;;;22.90;88.10;;;;;;4957801;28;20210;-71
2023/09/20 13:00:37;;;;;;;1.00;1.00;;;22.90;88.30;;;;;;4957777;28;20197;-70
2023/09/20 13:03:06;;;;;;;3.42;1.05;;;22.90;88.20;;;;;;4956457;28;20185;-70
2023/09/20 13:05:32;;;;;;;1.35;1.25;;;22.90;88.20;;;;;;4946802;28;20257;-71
2023/09/20 13:07:59;;;;;;;1.23;1.13;;;22.90;87.90;;;;;;4980480;28;20212;-70
2023/09/20 13:10:27;;;;;;;1.52;1.10;;;22.90;87.80;;;;;;4955030;28;20631;-70
2023/09/20 13:12:53;;;;;;;1.10;1.00;;;22.90;88.00;;;;;;4940615;28;20189;-71
2023/09/20 13:15:20;;;;;;;3.80;1.00;;;22.90;88.20;;;;;;4931235;28;20653;-70
2023/09/20 13:17:51;;;;;;;1.02;1.02;;;22.90;88.00;;;;;;4941560;28;20226;-70
2023/09/20 13:20:18;;;;;;;1.00;1.00;;;22.90;88.00;;;;;;4940266;28;20190;-70
2023/09/20 13:22:52;;;;;;;1.08;1.02;;;22.90;88.10;;;;;;4956680;28;20178;-71
2023/09/20 13:25:19;;;;;;;1.13;0.98;;;22.90;88.20;;;;;;4939202;28;20228;-71
2023/09/20 13:27:49;;;;;;;1.67;1.20;;;22.90;88.30;;;;;;4956971;28;20210;-70
2023/09/20 13:30:17;;;;;;;0.90;0.90;;;22.90;88.20;;;;;;4955857;28;20217;-71
2023/09/20 13:32:46;;;;;;;1.48;1.10;;;22.90;88.30;;;;;;4956980;28;20185;-70
2023/09/20 13:35:15;;;;;;;1.20;1.00;;;22.90;88.30;;;;;;4947889;28;20183;-70